KMZZ/MZZ METAR and TAF weather

Enter ICAO airport designator
Station Type Date Time Source
KMZZ METAR 2022/05/23 13:55 UTC NOAA

KMZZ 231355Z AUTO 04010KT 7SM CLR 12/04 A3035 RMK AO2 T01220044


Station Type Date Time Source
KMZZ Decoded METAR 2022/05/23 13:55 UTC NOAA

Station name not available
May 23, 2022 - 09:55 AM EDT / 2022.05.23 1355 UTC
Wind: from the NE (040 degrees) at 12 MPH (10 KT):0
Visibility: 7 mile(s):0
Sky conditions: clear
Temperature: 54.0 F (12.2 C)
Dew Point: 39.9 F (4.4 C)
Relative Humidity: 58%
Pressure (altimeter): 30.35 in. Hg (1027 hPa)
ob: KMZZ 231355Z AUTO 04010KT 7SM CLR 12/04 A3035 RMK AO2 T01220044
cycle: 14

Station Type Date Time Source
KMZZ TAF UTC NOAA

Error!

Example: see airport list